sensor_id;sensor_type;location;lat;lon;timestamp;pressure;altitude;pressure_sealevel;temperature;humidity
17311;BME280;8773;43.300;0.394;2023-11-19T00:00:00;100546.69;;;10.42;76.27
17311;BME280;8773;43.300;0.394;2023-11-19T00:02:28;100550.50;;;10.50;76.03
17311;BME280;8773;43.300;0.394;2023-11-19T00:04:55;100554.84;;;10.41;76.61
17311;BME280;8773;43.300;0.394;2023-11-19T00:07:22;100551.31;;;10.40;76.25
17311;BME280;8773;43.300;0.394;2023-11-19T00:09:56;100545.25;;;10.38;76.54
17311;BME280;8773;43.300;0.394;2023-11-19T00:12:23;100552.28;;;10.39;75.41
17311;BME280;8773;43.300;0.394;2023-11-19T00:14:52;100545.13;;;10.40;75.59
17311;BME280;8773;43.300;0.394;2023-11-19T00:17:19;100547.09;;;10.38;75.50
17311;BME280;8773;43.300;0.394;2023-11-19T00:19:47;100545.91;;;10.21;76.57
17311;BME280;8773;43.300;0.394;2023-11-19T00:22:14;100543.25;;;10.21;76.29
17311;BME280;8773;43.300;0.394;2023-11-19T00:24:41;100543.25;;;10.31;75.71
17311;BME280;8773;43.300;0.394;2023-11-19T00:27:09;100554.72;;;10.12;76.48
17311;BME280;8773;43.300;0.394;2023-11-19T00:29:36;100547.94;;;10.08;77.50
17311;BME280;8773;43.300;0.394;2023-11-19T00:32:05;100535.78;;;10.15;76.58
17311;BME280;8773;43.300;0.394;2023-11-19T00:34:33;100537.88;;;10.12;76.99
17311;BME280;8773;43.300;0.394;2023-11-19T00:37:00;100546.72;;;10.12;76.81
17311;BME280;8773;43.300;0.394;2023-11-19T00:39:27;100546.00;;;10.10;76.45
17311;BME280;8773;43.300;0.394;2023-11-19T00:41:55;100538.00;;;10.10;75.87
17311;BME280;8773;43.300;0.394;2023-11-19T00:44:22;100537.59;;;10.15;76.21
17311;BME280;8773;43.300;0.394;2023-11-19T00:46:49;100537.34;;;10.18;75.19
17311;BME280;8773;43.300;0.394;2023-11-19T00:49:18;100541.81;;;10.17;75.90
17311;BME280;8773;43.300;0.394;2023-11-19T00:51:45;100538.47;;;10.25;75.46
17311;BME280;8773;43.300;0.394;2023-11-19T00:54:13;100534.25;;;10.22;75.12
17311;BME280;8773;43.300;0.394;2023-11-19T00:56:40;100530.91;;;10.30;74.73
17311;BME280;8773;43.300;0.394;2023-11-19T00:59:08;100527.38;;;10.29;74.86
17311;BME280;8773;43.300;0.394;2023-11-19T01:01:35;100516.97;;;10.26;75.06
17311;BME280;8773;43.300;0.394;2023-11-19T01:04:02;100516.97;;;10.26;75.18
17311;BME280;8773;43.300;0.394;2023-11-19T01:06:31;100518.25;;;10.22;75.07
17311;BME280;8773;43.300;0.394;2023-11-19T01:08:59;100524.69;;;10.20;75.04
17311;BME280;8773;43.300;0.394;2023-11-19T01:11:26;100521.59;;;10.15;75.77
17311;BME280;8773;43.300;0.394;2023-11-19T01:13:54;100523.84;;;10.19;74.23
17311;BME280;8773;43.300;0.394;2023-11-19T01:16:21;100515.84;;;10.19;74.08
17311;BME280;8773;43.300;0.394;2023-11-19T01:18:48;100516.81;;;10.18;75.12
17311;BME280;8773;43.300;0.394;2023-11-19T01:21:16;100517.09;;;10.15;74.42
17311;BME280;8773;43.300;0.394;2023-11-19T01:23:45;100517.69;;;10.19;74.44
17311;BME280;8773;43.300;0.394;2023-11-19T01:26:13;100524.84;;;10.18;74.37
17311;BME280;8773;43.300;0.394;2023-11-19T01:28:40;100520.34;;;10.19;74.00
17311;BME280;8773;43.300;0.394;2023-11-19T01:31:18;100524.84;;;10.18;73.55
17311;BME280;8773;43.300;0.394;2023-11-19T01:33:46;100520.59;;;10.16;74.18
17311;BME280;8773;43.300;0.394;2023-11-19T01:36:13;100520.81;;;10.03;74.99
17311;BME280;8773;43.300;0.394;2023-11-19T01:38:40;100530.78;;;10.01;75.37
17311;BME280;8773;43.300;0.394;2023-11-19T01:41:09;100528.38;;;9.98;75.34
17311;BME280;8773;43.300;0.394;2023-11-19T01:43:38;100525.78;;;9.87;75.90
17311;BME280;8773;43.300;0.394;2023-11-19T01:46:06;100526.56;;;9.98;75.66
17311;BME280;8773;43.300;0.394;2023-11-19T01:48:34;100526.88;;;10.05;75.84
17311;BME280;8773;43.300;0.394;2023-11-19T01:51:04;100522.66;;;10.02;75.19
17311;BME280;8773;43.300;0.394;2023-11-19T01:53:32;100518.88;;;10.05;75.53
17311;BME280;8773;43.300;0.394;2023-11-19T01:56:01;100520.81;;;10.03;75.03
17311;BME280;8773;43.300;0.394;2023-11-19T01:58:31;100520.50;;;9.96;75.57
17311;BME280;8773;43.300;0.394;2023-11-19T02:00:58;100524.28;;;9.94;75.06
17311;BME280;8773;43.300;0.394;2023-11-19T02:03:26;100520.06;;;9.91;74.32
17311;BME280;8773;43.300;0.394;2023-11-19T02:05:54;100521.75;;;9.92;75.06
17311;BME280;8773;43.300;0.394;2023-11-19T02:08:21;100520.91;;;9.92;74.95
17311;BME280;8773;43.300;0.394;2023-11-19T02:10:49;100529.63;;;9.94;75.23
17311;BME280;8773;43.300;0.394;2023-11-19T02:13:16;100522.50;;;9.83;75.07
17311;BME280;8773;43.300;0.394;2023-11-19T02:15:45;100518.69;;;9.76;74.62
17311;BME280;8773;43.300;0.394;2023-11-19T02:18:22;100518.63;;;9.66;75.85
17311;BME280;8773;43.300;0.394;2023-11-19T02:20:50;100516.56;;;9.70;75.70
17311;BME280;8773;43.300;0.394;2023-11-19T02:23:18;100517.25;;;9.72;75.48
17311;BME280;8773;43.300;0.394;2023-11-19T02:25:49;100512.59;;;9.64;76.28
17311;BME280;8773;43.300;0.394;2023-11-19T02:28:23;100513.03;;;9.69;75.25
17311;BME280;8773;43.300;0.394;2023-11-19T02:30:50;100521.22;;;9.57;76.16
17311;BME280;8773;43.300;0.394;2023-11-19T02:33:18;100515.56;;;9.50;77.14
17311;BME280;8773;43.300;0.394;2023-11-19T02:35:45;100509.06;;;9.43;77.08
17311;BME280;8773;43.300;0.394;2023-11-19T02:38:12;100508.19;;;9.33;77.50
17311;BME280;8773;43.300;0.394;2023-11-19T02:40:40;100512.84;;;9.20;78.40
17311;BME280;8773;43.300;0.394;2023-11-19T02:43:07;100507.25;;;9.23;78.60
17311;BME280;8773;43.300;0.394;2023-11-19T02:45:36;100504.16;;;9.06;77.65
17311;BME280;8773;43.300;0.394;2023-11-19T02:48:04;100504.78;;;8.99;79.19
17311;BME280;8773;43.300;0.394;2023-11-19T02:50:31;100508.41;;;8.66;80.23
17311;BME280;8773;43.300;0.394;2023-11-19T02:52:59;100513.88;;;8.96;80.34
17311;BME280;8773;43.300;0.394;2023-11-19T02:55:26;100505.47;;;8.80;81.73
17311;BME280;8773;43.300;0.394;2023-11-19T02:57:54;100507.41;;;8.78;81.25
17311;BME280;8773;43.300;0.394;2023-11-19T03:00:22;100506.34;;;9.01;79.86
17311;BME280;8773;43.300;0.394;2023-11-19T03:02:51;100502.88;;;9.22;79.91
17311;BME280;8773;43.300;0.394;2023-11-19T03:05:19;100494.63;;;9.25;79.40
17311;BME280;8773;43.300;0.394;2023-11-19T03:07:46;100495.34;;;9.27;79.96
17311;BME280;8773;43.300;0.394;2023-11-19T03:10:13;100496.72;;;9.42;78.62
17311;BME280;8773;43.300;0.394;2023-11-19T03:12:41;100486.97;;;9.52;78.08
17311;BME280;8773;43.300;0.394;2023-11-19T03:15:09;100483.13;;;9.45;77.95
17311;BME280;8773;43.300;0.394;2023-11-19T03:17:38;100482.16;;;9.46;77.87
17311;BME280;8773;43.300;0.394;2023-11-19T03:20:08;100486.31;;;9.39;78.08
17311;BME280;8773;43.300;0.394;2023-11-19T03:22:36;100479.41;;;9.36;78.26
17311;BME280;8773;43.300;0.394;2023-11-19T03:25:04;100479.50;;;9.25;78.65
17311;BME280;8773;43.300;0.394;2023-11-19T03:27:32;100478.00;;;9.32;77.74
17311;BME280;8773;43.300;0.394;2023-11-19T03:29:59;100477.28;;;9.30;79.12
17311;BME280;8773;43.300;0.394;2023-11-19T03:32:26;100475.09;;;9.35;78.50
17311;BME280;8773;43.300;0.394;2023-11-19T03:34:54;100471.28;;;9.38;78.07
17311;BME280;8773;43.300;0.394;2023-11-19T03:37:22;100463.59;;;9.35;78.30
17311;BME280;8773;43.300;0.394;2023-11-19T03:39:50;100462.16;;;9.31;78.30
17311;BME280;8773;43.300;0.394;2023-11-19T03:42:19;100461.22;;;9.21;78.19
17311;BME280;8773;43.300;0.394;2023-11-19T03:44:46;100460.06;;;9.14;78.84
17311;BME280;8773;43.300;0.394;2023-11-19T03:47:13;100465.78;;;9.09;78.99
17311;BME280;8773;43.300;0.394;2023-11-19T03:49:41;100468.22;;;9.01;78.98
17311;BME280;8773;43.300;0.394;2023-11-19T03:52:08;100462.34;;;9.18;78.06
17311;BME280;8773;43.300;0.394;2023-11-19T03:54:47;100459.09;;;9.15;78.80
17311;BME280;8773;43.300;0.394;2023-11-19T03:57:14;100454.72;;;9.14;79.23
17311;BME280;8773;43.300;0.394;2023-11-19T03:59:42;100457.84;;;9.19;78.67
17311;BME280;8773;43.300;0.394;2023-11-19T04:02:09;100446.69;;;9.25;78.91
17311;BME280;8773;43.300;0.394;2023-11-19T04:04:36;100452.22;;;9.33;77.54
17311;BME280;8773;43.300;0.394;2023-11-19T04:07:04;100458.25;;;9.35;78.54
17311;BME280;8773;43.300;0.394;2023-11-19T04:09:32;100450.78;;;9.29;78.96
17311;BME280;8773;43.300;0.394;2023-11-19T04:12:01;100445.13;;;9.22;78.59
17311;BME280;8773;43.300;0.394;2023-11-19T04:14:28;100445.13;;;9.22;79.18
17311;BME280;8773;43.300;0.394;2023-11-19T04:16:56;100449.16;;;9.17;78.77
17311;BME280;8773;43.300;0.394;2023-11-19T04:19:23;100457.78;;;9.09;79.49
17311;BME280;8773;43.300;0.394;2023-11-19T04:21:51;100455.19;;;9.19;79.04
17311;BME280;8773;43.300;0.394;2023-11-19T04:24:18;100452.00;;;9.25;78.07
17311;BME280;8773;43.300;0.394;2023-11-19T04:26:46;100454.00;;;8.91;79.83
17311;BME280;8773;43.300;0.394;2023-11-19T04:29:16;100455.03;;;8.99;78.84
17311;BME280;8773;43.300;0.394;2023-11-19T04:31:44;100451.13;;;9.03;78.84
17311;BME280;8773;43.300;0.394;2023-11-19T04:34:12;100454.78;;;9.02;79.33
17311;BME280;8773;43.300;0.394;2023-11-19T04:36:39;100449.66;;;9.10;78.33
17311;BME280;8773;43.300;0.394;2023-11-19T04:39:07;100445.31;;;9.09;78.41
17311;BME280;8773;43.300;0.394;2023-11-19T04:41:34;100442.31;;;9.03;78.85
17311;BME280;8773;43.300;0.394;2023-11-19T04:44:01;100446.78;;;9.02;79.33
17311;BME280;8773;43.300;0.394;2023-11-19T04:46:30;100453.09;;;9.01;78.54
17311;BME280;8773;43.300;0.394;2023-11-19T04:48:58;100450.88;;;9.06;78.40
17311;BME280;8773;43.300;0.394;2023-11-19T04:51:25;100449.66;;;9.10;78.64
17311;BME280;8773;43.300;0.394;2023-11-19T04:53:52;100448.22;;;9.06;78.33
17311;BME280;8773;43.300;0.394;2023-11-19T04:56:20;100454.75;;;8.82;79.80
17311;BME280;8773;43.300;0.394;2023-11-19T04:58:47;100456.97;;;8.97;79.20
17311;BME280;8773;43.300;0.394;2023-11-19T05:01:14;100450.16;;;9.04;78.93
17311;BME280;8773;43.300;0.394;2023-11-19T05:03:43;100451.84;;;9.05;79.12
17311;BME280;8773;43.300;0.394;2023-11-19T05:06:11;100453.63;;;9.16;78.76
17311;BME280;8773;43.300;0.394;2023-11-19T05:08:38;100454.97;;;9.10;78.63
17311;BME280;8773;43.300;0.394;2023-11-19T05:11:05;100443.94;;;9.15;78.60
17311;BME280;8773;43.300;0.394;2023-11-19T05:13:33;100452.25;;;9.22;78.09
17311;BME280;8773;43.300;0.394;2023-11-19T05:16:00;100448.03;;;9.19;77.83
17311;BME280;8773;43.300;0.394;2023-11-19T05:18:27;100448.47;;;9.03;77.73
17311;BME280;8773;43.300;0.394;2023-11-19T05:20:56;100443.03;;;9.05;78.47
17311;BME280;8773;43.300;0.394;2023-11-19T05:23:23;100443.16;;;9.03;78.80
17311;BME280;8773;43.300;0.394;2023-11-19T05:25:51;100445.25;;;9.21;77.70
17311;BME280;8773;43.300;0.394;2023-11-19T05:28:18;100448.38;;;9.26;78.00
17311;BME280;8773;43.300;0.394;2023-11-19T05:30:45;100451.50;;;9.31;77.75
17311;BME280;8773;43.300;0.394;2023-11-19T05:33:13;100441.59;;;9.22;77.72
17311;BME280;8773;43.300;0.394;2023-11-19T05:35:40;100447.38;;;9.06;78.46
17311;BME280;8773;43.300;0.394;2023-11-19T05:38:09;100456.81;;;9.10;78.88
17311;BME280;8773;43.300;0.394;2023-11-19T05:40:36;100457.94;;;8.96;78.25
17311;BME280;8773;43.300;0.394;2023-11-19T05:43:03;100449.41;;;8.93;79.10
17311;BME280;8773;43.300;0.394;2023-11-19T05:45:31;100453.72;;;8.94;78.99
17311;BME280;8773;43.300;0.394;2023-11-19T05:47:59;100450.44;;;9.01;79.72
17311;BME280;8773;43.300;0.394;2023-11-19T05:50:26;100450.84;;;9.18;78.73
17311;BME280;8773;43.300;0.394;2023-11-19T05:52:54;100446.22;;;9.20;77.56
17311;BME280;8773;43.300;0.394;2023-11-19T05:55:22;100446.09;;;9.21;77.75
17311;BME280;8773;43.300;0.394;2023-11-19T05:57:50;100456.50;;;9.24;77.52
17311;BME280;8773;43.300;0.394;2023-11-19T06:00:17;100460.47;;;9.30;76.49
17311;BME280;8773;43.300;0.394;2023-11-19T06:02:45;100462.53;;;9.26;76.73
17311;BME280;8773;43.300;0.394;2023-11-19T06:05:12;100463.66;;;9.24;76.79
17311;BME280;8773;43.300;0.394;2023-11-19T06:07:39;100466.06;;;9.27;76.75
17311;BME280;8773;43.300;0.394;2023-11-19T06:10:07;100463.38;;;9.27;76.57
17311;BME280;8773;43.300;0.394;2023-11-19T06:12:36;100466.19;;;9.25;76.37
17311;BME280;8773;43.300;0.394;2023-11-19T06:15:05;100466.31;;;9.24;76.84
17311;BME280;8773;43.300;0.394;2023-11-19T06:17:32;100466.56;;;9.21;76.25
17311;BME280;8773;43.300;0.394;2023-11-19T06:20:00;100459.47;;;9.10;77.68
17311;BME280;8773;43.300;0.394;2023-11-19T06:22:27;100465.84;;;9.19;76.67
17311;BME280;8773;43.300;0.394;2023-11-19T06:24:54;100462.59;;;9.15;77.01
17311;BME280;8773;43.300;0.394;2023-11-19T06:27:22;100467.59;;;9.08;77.45
17311;BME280;8773;43.300;0.394;2023-11-19T06:29:50;100470.50;;;9.05;77.13
17311;BME280;8773;43.300;0.394;2023-11-19T06:32:18;100462.19;;;8.99;77.71
17311;BME280;8773;43.300;0.394;2023-11-19T06:34:45;100464.97;;;8.97;77.61
17311;BME280;8773;43.300;0.394;2023-11-19T06:37:12;100471.38;;;8.95;77.89
17311;BME280;8773;43.300;0.394;2023-11-19T06:39:40;100465.81;;;8.98;77.73
17311;BME280;8773;43.300;0.394;2023-11-19T06:42:07;100470.97;;;8.90;77.92
17311;BME280;8773;43.300;0.394;2023-11-19T06:44:34;100470.38;;;8.86;77.77
17311;BME280;8773;43.300;0.394;2023-11-19T06:47:03;100467.56;;;8.88;77.79
17311;BME280;8773;43.300;0.394;2023-11-19T06:49:31;100471.09;;;8.88;77.57
17311;BME280;8773;43.300;0.394;2023-11-19T06:51:58;100471.34;;;8.85;78.26
17311;BME280;8773;43.300;0.394;2023-11-19T06:54:26;100470.28;;;8.97;77.29
17311;BME280;8773;43.300;0.394;2023-11-19T06:56:53;100465.56;;;9.01;77.53
17311;BME280;8773;43.300;0.394;2023-11-19T06:59:20;100462.50;;;9.05;77.77
17311;BME280;8773;43.300;0.394;2023-11-19T07:01:48;100469.78;;;9.03;77.19
17311;BME280;8773;43.300;0.394;2023-11-19T07:04:16;100481.88;;;9.07;77.85
17311;BME280;8773;43.300;0.394;2023-11-19T07:06:44;100478.97;;;9.10;77.74
17311;BME280;8773;43.300;0.394;2023-11-19T07:09:11;100481.84;;;9.19;77.20
17311;BME280;8773;43.300;0.394;2023-11-19T07:11:39;100482.41;;;9.22;77.07
17311;BME280;8773;43.300;0.394;2023-11-19T07:14:07;100475.19;;;9.13;77.05
17311;BME280;8773;43.300;0.394;2023-11-19T07:16:35;100476.84;;;9.25;76.90
17311;BME280;8773;43.300;0.394;2023-11-19T07:19:02;100480.69;;;9.32;76.69
17311;BME280;8773;43.300;0.394;2023-11-19T07:21:31;100482.16;;;9.25;77.15
17311;BME280;8773;43.300;0.394;2023-11-19T07:23:59;100490.06;;;9.36;77.08
17311;BME280;8773;43.300;0.394;2023-11-19T07:26:26;100487.25;;;9.28;76.68
17311;BME280;8773;43.300;0.394;2023-11-19T07:28:53;100485.41;;;9.29;76.85
17311;BME280;8773;43.300;0.394;2023-11-19T07:31:21;100485.94;;;9.23;77.20
17311;BME280;8773;43.300;0.394;2023-11-19T07:33:48;100477.47;;;9.18;77.97
17311;BME280;8773;43.300;0.394;2023-11-19T07:36:15;100489.50;;;8.80;78.22
17311;BME280;8773;43.300;0.394;2023-11-19T07:38:45;100482.84;;;8.86;78.23
17311;BME280;8773;43.300;0.394;2023-11-19T07:41:12;100492.38;;;8.88;78.46
17311;BME280;8773;43.300;0.394;2023-11-19T07:43:42;100500.44;;;8.98;79.03
17311;BME280;8773;43.300;0.394;2023-11-19T07:46:11;100502.22;;;9.08;78.09
17311;BME280;8773;43.300;0.394;2023-11-19T07:48:38;100500.59;;;9.38;77.54
17311;BME280;8773;43.300;0.394;2023-11-19T07:51:06;100508.94;;;9.65;76.76
17311;BME280;8773;43.300;0.394;2023-11-19T07:53:33;100510.16;;;9.82;76.15
17311;BME280;8773;43.300;0.394;2023-11-19T07:56:02;100512.28;;;10.09;76.27
17311;BME280;8773;43.300;0.394;2023-11-19T07:58:30;100512.34;;;10.28;75.06
17311;BME280;8773;43.300;0.394;2023-11-19T08:00:57;100509.31;;;10.42;74.85
17311;BME280;8773;43.300;0.394;2023-11-19T08:03:24;100505.25;;;10.48;74.00
17311;BME280;8773;43.300;0.394;2023-11-19T08:05:55;100506.84;;;10.60;73.87
17311;BME280;8773;43.300;0.394;2023-11-19T08:08:24;100507.28;;;10.65;73.61
17311;BME280;8773;43.300;0.394;2023-11-19T08:10:51;100506.00;;;10.60;73.75
17311;BME280;8773;43.300;0.394;2023-11-19T08:13:20;100509.78;;;10.67;73.58
17311;BME280;8773;43.300;0.394;2023-11-19T08:15:48;100510.91;;;10.74;73.27
17311;BME280;8773;43.300;0.394;2023-11-19T08:18:15;100505.69;;;10.53;73.23
17311;BME280;8773;43.300;0.394;2023-11-19T08:20:42;100512.34;;;10.78;72.85
17311;BME280;8773;43.300;0.394;2023-11-19T08:23:10;100521.03;;;10.61;73.55
17311;BME280;8773;43.300;0.394;2023-11-19T08:25:37;100529.91;;;10.61;72.89
17311;BME280;8773;43.300;0.394;2023-11-19T08:28:05;100538.72;;;10.12;76.07
17311;BME280;8773;43.300;0.394;2023-11-19T08:30:34;100533.81;;;10.57;74.19
17311;BME280;8773;43.300;0.394;2023-11-19T08:33:01;100528.69;;;10.94;73.63
17311;BME280;8773;43.300;0.394;2023-11-19T08:35:28;100533.88;;;11.25;72.73
17311;BME280;8773;43.300;0.394;2023-11-19T08:37:56;100529.69;;;11.51;71.61
17311;BME280;8773;43.300;0.394;2023-11-19T08:40:23;100524.59;;;11.58;71.40
17311;BME280;8773;43.300;0.394;2023-11-19T08:42:51;100530.53;;;11.52;71.55
17311;BME280;8773;43.300;0.394;2023-11-19T08:45:18;100536.00;;;11.60;71.77
17311;BME280;8773;43.300;0.394;2023-11-19T08:47:48;100530.91;;;11.86;71.11
17311;BME280;8773;43.300;0.394;2023-11-19T08:50:15;100530.53;;;12.08;70.54
17311;BME280;8773;43.300;0.394;2023-11-19T08:52:43;100525.44;;;12.15;69.90
17311;BME280;8773;43.300;0.394;2023-11-19T08:55:10;100525.72;;;12.12;70.01
17311;BME280;8773;43.300;0.394;2023-11-19T08:57:37;100525.28;;;12.16;70.01
17311;BME280;8773;43.300;0.394;2023-11-19T09:00:08;100534.09;;;12.36;69.92
17311;BME280;8773;43.300;0.394;2023-11-19T09:02:35;100535.03;;;12.45;69.72
17311;BME280;8773;43.300;0.394;2023-11-19T09:05:05;100537.09;;;12.60;69.28
17311;BME280;8773;43.300;0.394;2023-11-19T09:07:33;100533.28;;;12.63;69.18
17311;BME280;8773;43.300;0.394;2023-11-19T09:10:00;100539.44;;;12.73;68.86
17311;BME280;8773;43.300;0.394;2023-11-19T09:12:27;100543.50;;;12.95;68.48
17311;BME280;8773;43.300;0.394;2023-11-19T09:14:55;100547.66;;;13.07;67.70
17311;BME280;8773;43.300;0.394;2023-11-19T09:17:22;100541.63;;;13.23;67.52
17311;BME280;8773;43.300;0.394;2023-11-19T09:19:49;100547.41;;;13.36;66.93
17311;BME280;8773;43.300;0.394;2023-11-19T09:22:18;100545.13;;;13.41;66.96
17311;BME280;8773;43.300;0.394;2023-11-19T09:24:45;100549.63;;;13.58;66.43
17311;BME280;8773;43.300;0.394;2023-11-19T09:27:13;100543.66;;;13.64;66.57
17311;BME280;8773;43.300;0.394;2023-11-19T09:29:40;100538.88;;;13.76;66.27
17311;BME280;8773;43.300;0.394;2023-11-19T09:32:07;100537.88;;;13.77;65.79
17311;BME280;8773;43.300;0.394;2023-11-19T09:34:35;100548.53;;;13.87;66.05
17311;BME280;8773;43.300;0.394;2023-11-19T09:37:02;100546.91;;;13.94;66.37
17311;BME280;8773;43.300;0.394;2023-11-19T09:39:31;100554.00;;;14.03;65.32
17311;BME280;8773;43.300;0.394;2023-11-19T09:41:58;100551.00;;;14.06;65.78
17311;BME280;8773;43.300;0.394;2023-11-19T09:44:26;100547.34;;;14.15;65.10
17311;BME280;8773;43.300;0.394;2023-11-19T09:46:56;100548.09;;;14.25;64.99
17311;BME280;8773;43.300;0.394;2023-11-19T09:49:25;100538.88;;;14.28;65.38
17311;BME280;8773;43.300;0.394;2023-11-19T09:51:56;100541.91;;;14.33;65.20
17311;BME280;8773;43.300;0.394;2023-11-19T09:54:23;100544.44;;;14.34;65.31
17311;BME280;8773;43.300;0.394;2023-11-19T09:56:52;100539.75;;;14.36;65.05
17311;BME280;8773;43.300;0.394;2023-11-19T09:59:20;100539.06;;;14.34;64.98
17311;BME280;8773;43.300;0.394;2023-11-19T10:01:48;100543.16;;;14.47;65.01
17311;BME280;8773;43.300;0.394;2023-11-19T10:04:15;100536.16;;;14.54;64.66
17311;BME280;8773;43.300;0.394;2023-11-19T10:06:43;100537.50;;;14.66;64.56
17311;BME280;8773;43.300;0.394;2023-11-19T10:09:12;100536.69;;;14.73;64.74
17311;BME280;8773;43.300;0.394;2023-11-19T10:11:39;100540.81;;;14.86;63.98
17311;BME280;8773;43.300;0.394;2023-11-19T10:14:08;100544.66;;;14.83;64.14
17311;BME280;8773;43.300;0.394;2023-11-19T10:16:35;100529.56;;;14.90;63.95
17311;BME280;8773;43.300;0.394;2023-11-19T10:19:03;100532.94;;;14.92;63.96
17311;BME280;8773;43.300;0.394;2023-11-19T10:21:32;100530.22;;;15.00;63.38
17311;BME280;8773;43.300;0.394;2023-11-19T10:24:00;100531.25;;;15.08;63.73
17311;BME280;8773;43.300;0.394;2023-11-19T10:26:28;100528.09;;;15.20;63.34
17311;BME280;8773;43.300;0.394;2023-11-19T10:28:56;100529.94;;;15.20;63.64
17311;BME280;8773;43.300;0.394;2023-11-19T10:31:24;100348.97;;;14.20;63.37
17311;BME280;8773;43.300;0.394;2023-11-19T10:33:53;100526.09;;;15.30;63.15
17311;BME280;8773;43.300;0.394;2023-11-19T10:36:20;100523.06;;;15.33;63.16
17311;BME280;8773;43.300;0.394;2023-11-19T10:38:54;100516.84;;;15.33;63.08
17311;BME280;8773;43.300;0.394;2023-11-19T10:41:28;100516.31;;;15.54;62.58
17311;BME280;8773;43.300;0.394;2023-11-19T10:43:55;100518.50;;;15.58;62.50
17311;BME280;8773;43.300;0.394;2023-11-19T10:46:22;100511.94;;;15.61;62.25
17311;BME280;8773;43.300;0.394;2023-11-19T10:48:51;100506.06;;;15.65;62.35
17311;BME280;8773;43.300;0.394;2023-11-19T10:51:19;100505.72;;;15.68;62.12
17311;BME280;8773;43.300;0.394;2023-11-19T10:53:49;100505.38;;;15.71;62.00
17311;BME280;8773;43.300;0.394;2023-11-19T10:56:17;100503.03;;;15.85;62.16
17311;BME280;8773;43.300;0.394;2023-11-19T10:58:49;100504.91;;;15.84;61.82
17311;BME280;8773;43.300;0.394;2023-11-19T11:01:19;100493.06;;;15.93;61.74
17311;BME280;8773;43.300;0.394;2023-11-19T11:03:47;100498.59;;;16.00;61.87
17311;BME280;8773;43.300;0.394;2023-11-19T11:06:17;100491.19;;;16.10;61.58
17311;BME280;8773;43.300;0.394;2023-11-19T11:08:46;100490.84;;;16.13;61.54
17311;BME280;8773;43.300;0.394;2023-11-19T11:11:15;100486.13;;;16.15;61.00
17311;BME280;8773;43.300;0.394;2023-11-19T11:13:43;100489.78;;;16.22;61.07
17311;BME280;8773;43.300;0.394;2023-11-19T11:16:12;100479.50;;;16.26;60.40
17311;BME280;8773;43.300;0.394;2023-11-19T11:18:40;100478.50;;;16.27;60.57
17311;BME280;8773;43.300;0.394;2023-11-19T11:21:11;100474.81;;;16.20;61.14
17311;BME280;8773;43.300;0.394;2023-11-19T11:24:14;100475.56;;;16.36;60.41
17311;BME280;8773;43.300;0.394;2023-11-19T11:27:20;100463.47;;;16.32;59.87
17311;BME280;8773;43.300;0.394;2023-11-19T11:30:03;100462.75;;;16.38;60.07
17311;BME280;8773;43.300;0.394;2023-11-19T11:32:40;100464.91;;;16.51;60.31
17311;BME280;8773;43.300;0.394;2023-11-19T11:35:24;100468.66;;;16.34;60.39
17311;BME280;8773;43.300;0.394;2023-11-19T11:38:00;100452.59;;;16.49;60.45
17311;BME280;8773;43.300;0.394;2023-11-19T11:40:30;100448.06;;;16.49;60.93
17311;BME280;8773;43.300;0.394;2023-11-19T11:42:57;100453.38;;;16.65;59.97
17311;BME280;8773;43.300;0.394;2023-11-19T11:45:36;100448.06;;;16.80;60.16
17311;BME280;8773;43.300;0.394;2023-11-19T11:48:15;100445.84;;;16.84;59.77
17311;BME280;8773;43.300;0.394;2023-11-19T11:50:54;100437.94;;;16.82;59.89
17311;BME280;8773;43.300;0.394;2023-11-19T11:53:22;100436.13;;;16.97;59.90
17311;BME280;8773;43.300;0.394;2023-11-19T11:55:55;100434.47;;;16.96;60.16
17311;BME280;8773;43.300;0.394;2023-11-19T11:58:26;100429.06;;;16.96;59.62
17311;BME280;8773;43.300;0.394;2023-11-19T12:00:54;100426.72;;;16.93;60.43
17311;BME280;8773;43.300;0.394;2023-11-19T12:03:27;100417.31;;;17.12;60.48
17311;BME280;8773;43.300;0.394;2023-11-19T12:05:54;100417.41;;;17.19;60.04
17311;BME280;8773;43.300;0.394;2023-11-19T12:08:25;100415.44;;;17.13;60.01
17311;BME280;8773;43.300;0.394;2023-11-19T12:10:56;100409.53;;;17.32;60.44
17311;BME280;8773;43.300;0.394;2023-11-19T12:13:24;100404.53;;;17.44;59.80
17311;BME280;8773;43.300;0.394;2023-11-19T12:16:10;100399.78;;;17.60;59.58
17311;BME280;8773;43.300;0.394;2023-11-19T12:18:39;100395.72;;;17.64;59.47
17311;BME280;8773;43.300;0.394;2023-11-19T12:21:07;100391.16;;;17.65;59.15
17311;BME280;8773;43.300;0.394;2023-11-19T12:23:35;100393.38;;;17.61;59.64
17311;BME280;8773;43.300;0.394;2023-11-19T12:26:06;100388.53;;;17.72;59.23
17311;BME280;8773;43.300;0.394;2023-11-19T12:28:33;100379.41;;;17.73;59.27
17311;BME280;8773;43.300;0.394;2023-11-19T12:31:08;100376.34;;;17.76;59.04
17311;BME280;8773;43.300;0.394;2023-11-19T12:33:36;100380.03;;;17.60;59.19
17311;BME280;8773;43.300;0.394;2023-11-19T12:36:03;100372.34;;;17.86;59.23
17311;BME280;8773;43.300;0.394;2023-11-19T12:38:31;100372.25;;;17.94;58.33
17311;BME280;8773;43.300;0.394;2023-11-19T12:41:07;100364.78;;;17.96;58.15
17311;BME280;8773;43.300;0.394;2023-11-19T12:43:35;100363.38;;;18.00;57.79
17311;BME280;8773;43.300;0.394;2023-11-19T12:46:18;100361.75;;;18.06;57.86
17311;BME280;8773;43.300;0.394;2023-11-19T12:48:46;100364.94;;;18.10;57.71
17311;BME280;8773;43.300;0.394;2023-11-19T12:51:13;100361.47;;;18.16;57.16
17311;BME280;8773;43.300;0.394;2023-11-19T12:53:47;100365.28;;;18.21;56.67
17311;BME280;8773;43.300;0.394;2023-11-19T12:56:17;100355.38;;;18.28;56.52
17311;BME280;8773;43.300;0.394;2023-11-19T12:58:44;100360.19;;;18.12;56.09
17311;BME280;8773;43.300;0.394;2023-11-19T13:01:16;100357.19;;;18.21;56.24
17311;BME280;8773;43.300;0.394;2023-11-19T13:03:44;100349.97;;;18.28;56.00
17311;BME280;8773;43.300;0.394;2023-11-19T13:06:13;100347.28;;;18.28;56.08
17311;BME280;8773;43.300;0.394;2023-11-19T13:08:41;100344.84;;;18.33;55.75
17311;BME280;8773;43.300;0.394;2023-11-19T13:11:09;100347.66;;;18.47;55.86